sensor_id;sensor_type;location;lat;lon;timestamp;P1;durP1;ratioP1;P2;durP2;ratioP2
16737;SDS011;17906;47.684;10.806;2023-05-16T00:01:22;3.20;;;2.13;;
16737;SDS011;17906;47.684;10.806;2023-05-16T00:03:48;3.27;;;2.00;;
16737;SDS011;17906;47.684;10.806;2023-05-16T00:06:15;4.47;;;1.90;;
16737;SDS011;17906;47.684;10.806;2023-05-16T00:08:42;3.63;;;2.20;;
16737;SDS011;17906;47.684;10.806;2023-05-16T00:11:08;3.03;;;2.10;;
16737;SDS011;17906;47.684;10.806;2023-05-16T00:13:37;2.53;;;2.07;;
16737;SDS011;17906;47.684;10.806;2023-05-16T00:16:06;2.87;;;1.93;;
16737;SDS011;17906;47.684;10.806;2023-05-16T00:18:33;3.23;;;2.13;;
16737;SDS011;17906;47.684;10.806;2023-05-16T00:21:01;3.13;;;2.10;;
16737;SDS011;17906;47.684;10.806;2023-05-16T00:23:28;3.60;;;2.20;;
16737;SDS011;17906;47.684;10.806;2023-05-16T00:25:55;2.83;;;2.10;;
16737;SDS011;17906;47.684;10.806;2023-05-16T00:28:22;4.77;;;2.20;;
16737;SDS011;17906;47.684;10.806;2023-05-16T00:30:50;4.60;;;1.70;;
16737;SDS011;17906;47.684;10.806;2023-05-16T00:33:16;6.47;;;1.97;;
16737;SDS011;17906;47.684;10.806;2023-05-16T00:35:43;2.53;;;1.97;;
16737;SDS011;17906;47.684;10.806;2023-05-16T00:38:10;3.30;;;1.83;;
16737;SDS011;17906;47.684;10.806;2023-05-16T00:40:36;3.23;;;2.00;;
16737;SDS011;17906;47.684;10.806;2023-05-16T00:43:03;3.80;;;2.40;;
16737;SDS011;17906;47.684;10.806;2023-05-16T00:45:30;2.97;;;2.00;;
16737;SDS011;17906;47.684;10.806;2023-05-16T00:47:57;2.33;;;1.70;;
16737;SDS011;17906;47.684;10.806;2023-05-16T00:50:24;2.37;;;1.90;;
16737;SDS011;17906;47.684;10.806;2023-05-16T00:52:51;6.57;;;3.30;;
16737;SDS011;17906;47.684;10.806;2023-05-16T00:55:17;4.60;;;2.30;;
16737;SDS011;17906;47.684;10.806;2023-05-16T00:57:44;3.60;;;2.13;;
16737;SDS011;17906;47.684;10.806;2023-05-16T01:00:11;4.77;;;2.07;;
16737;SDS011;17906;47.684;10.806;2023-05-16T01:02:39;6.63;;;2.17;;
16737;SDS011;17906;47.684;10.806;2023-05-16T01:05:08;3.07;;;2.40;;
16737;SDS011;17906;47.684;10.806;2023-05-16T01:07:35;3.77;;;2.30;;
16737;SDS011;17906;47.684;10.806;2023-05-16T01:10:02;3.03;;;2.33;;
16737;SDS011;17906;47.684;10.806;2023-05-16T01:12:36;3.57;;;2.30;;
16737;SDS011;17906;47.684;10.806;2023-05-16T01:15:07;3.17;;;2.10;;
16737;SDS011;17906;47.684;10.806;2023-05-16T01:17:41;3.63;;;2.40;;
16737;SDS011;17906;47.684;10.806;2023-05-16T01:20:16;5.70;;;2.60;;
16737;SDS011;17906;47.684;10.806;2023-05-16T01:22:58;2.83;;;2.07;;
16737;SDS011;17906;47.684;10.806;2023-05-16T01:25:38;2.90;;;2.03;;
16737;SDS011;17906;47.684;10.806;2023-05-16T01:28:13;2.97;;;2.10;;
16737;SDS011;17906;47.684;10.806;2023-05-16T01:30:41;3.67;;;2.17;;
16737;SDS011;17906;47.684;10.806;2023-05-16T01:33:08;4.13;;;2.43;;
16737;SDS011;17906;47.684;10.806;2023-05-16T01:35:37;3.30;;;2.30;;
16737;SDS011;17906;47.684;10.806;2023-05-16T01:38:09;3.70;;;2.80;;
16737;SDS011;17906;47.684;10.806;2023-05-16T01:40:44;2.47;;;1.87;;
16737;SDS011;17906;47.684;10.806;2023-05-16T01:43:19;3.43;;;2.10;;
16737;SDS011;17906;47.684;10.806;2023-05-16T01:45:52;5.37;;;2.07;;
16737;SDS011;17906;47.684;10.806;2023-05-16T01:48:26;4.93;;;2.20;;
16737;SDS011;17906;47.684;10.806;2023-05-16T01:51:00;4.27;;;2.47;;
16737;SDS011;17906;47.684;10.806;2023-05-16T01:53:34;5.50;;;2.53;;
16737;SDS011;17906;47.684;10.806;2023-05-16T01:56:04;4.03;;;2.43;;
16737;SDS011;17906;47.684;10.806;2023-05-16T01:58:37;4.30;;;2.50;;
16737;SDS011;17906;47.684;10.806;2023-05-16T02:01:04;3.53;;;2.23;;
16737;SDS011;17906;47.684;10.806;2023-05-16T02:03:31;5.37;;;2.37;;
16737;SDS011;17906;47.684;10.806;2023-05-16T02:05:59;4.13;;;2.67;;
16737;SDS011;17906;47.684;10.806;2023-05-16T02:08:26;7.53;;;3.17;;
16737;SDS011;17906;47.684;10.806;2023-05-16T02:10:53;6.57;;;2.70;;
16737;SDS011;17906;47.684;10.806;2023-05-16T02:13:20;6.03;;;3.10;;
16737;SDS011;17906;47.684;10.806;2023-05-16T02:15:48;6.23;;;3.07;;
16737;SDS011;17906;47.684;10.806;2023-05-16T02:18:15;4.03;;;2.67;;
16737;SDS011;17906;47.684;10.806;2023-05-16T02:20:42;5.90;;;2.70;;
16737;SDS011;17906;47.684;10.806;2023-05-16T02:23:09;4.90;;;2.60;;
16737;SDS011;17906;47.684;10.806;2023-05-16T02:25:36;3.10;;;2.17;;
16737;SDS011;17906;47.684;10.806;2023-05-16T02:28:02;4.47;;;2.43;;
16737;SDS011;17906;47.684;10.806;2023-05-16T02:30:29;3.47;;;2.00;;
16737;SDS011;17906;47.684;10.806;2023-05-16T02:32:57;3.40;;;2.37;;
16737;SDS011;17906;47.684;10.806;2023-05-16T02:35:23;4.47;;;3.40;;
16737;SDS011;17906;47.684;10.806;2023-05-16T02:37:50;4.63;;;3.10;;
16737;SDS011;17906;47.684;10.806;2023-05-16T02:40:17;4.20;;;3.10;;
16737;SDS011;17906;47.684;10.806;2023-05-16T02:42:43;5.10;;;3.70;;
16737;SDS011;17906;47.684;10.806;2023-05-16T02:45:10;3.70;;;2.43;;
16737;SDS011;17906;47.684;10.806;2023-05-16T02:47:36;5.47;;;2.50;;
16737;SDS011;17906;47.684;10.806;2023-05-16T02:50:05;3.30;;;2.43;;
16737;SDS011;17906;47.684;10.806;2023-05-16T02:52:32;3.40;;;2.40;;
16737;SDS011;17906;47.684;10.806;2023-05-16T02:54:58;4.20;;;2.57;;
16737;SDS011;17906;47.684;10.806;2023-05-16T02:57:25;4.43;;;2.70;;
16737;SDS011;17906;47.684;10.806;2023-05-16T02:59:51;6.90;;;2.80;;
16737;SDS011;17906;47.684;10.806;2023-05-16T03:02:18;4.47;;;2.57;;
16737;SDS011;17906;47.684;10.806;2023-05-16T03:04:44;4.17;;;2.80;;
16737;SDS011;17906;47.684;10.806;2023-05-16T03:07:12;5.60;;;2.47;;
16737;SDS011;17906;47.684;10.806;2023-05-16T03:09:39;4.67;;;2.90;;
16737;SDS011;17906;47.684;10.806;2023-05-16T03:12:06;5.13;;;3.20;;
16737;SDS011;17906;47.684;10.806;2023-05-16T03:14:33;8.83;;;5.07;;
16737;SDS011;17906;47.684;10.806;2023-05-16T03:16:59;10.67;;;4.87;;
16737;SDS011;17906;47.684;10.806;2023-05-16T03:19:26;6.93;;;3.43;;
16737;SDS011;17906;47.684;10.806;2023-05-16T03:21:53;5.43;;;3.50;;
16737;SDS011;17906;47.684;10.806;2023-05-16T03:24:20;6.97;;;3.80;;
16737;SDS011;17906;47.684;10.806;2023-05-16T03:26:47;8.20;;;4.50;;
16737;SDS011;17906;47.684;10.806;2023-05-16T03:29:14;5.90;;;3.47;;
16737;SDS011;17906;47.684;10.806;2023-05-16T03:31:40;4.00;;;2.80;;
16737;SDS011;17906;47.684;10.806;2023-05-16T03:34:07;4.13;;;2.90;;
16737;SDS011;17906;47.684;10.806;2023-05-16T03:36:34;4.43;;;3.10;;
16737;SDS011;17906;47.684;10.806;2023-05-16T03:39:00;6.20;;;3.40;;
16737;SDS011;17906;47.684;10.806;2023-05-16T03:41:28;10.10;;;5.00;;
16737;SDS011;17906;47.684;10.806;2023-05-16T03:43:55;6.97;;;3.40;;
16737;SDS011;17906;47.684;10.806;2023-05-16T03:46:21;6.07;;;3.20;;
16737;SDS011;17906;47.684;10.806;2023-05-16T03:48:48;8.60;;;3.23;;
16737;SDS011;17906;47.684;10.806;2023-05-16T03:51:14;5.73;;;3.73;;
16737;SDS011;17906;47.684;10.806;2023-05-16T03:53:41;5.93;;;3.40;;
16737;SDS011;17906;47.684;10.806;2023-05-16T03:56:07;6.50;;;3.30;;
16737;SDS011;17906;47.684;10.806;2023-05-16T03:58:35;6.30;;;3.63;;
16737;SDS011;17906;47.684;10.806;2023-05-16T04:01:02;4.90;;;3.13;;
16737;SDS011;17906;47.684;10.806;2023-05-16T04:03:28;5.87;;;3.00;;
16737;SDS011;17906;47.684;10.806;2023-05-16T04:05:56;6.43;;;3.30;;
16737;SDS011;17906;47.684;10.806;2023-05-16T04:08:22;4.07;;;3.03;;
16737;SDS011;17906;47.684;10.806;2023-05-16T04:10:49;5.40;;;3.23;;
16737;SDS011;17906;47.684;10.806;2023-05-16T04:13:16;7.53;;;3.90;;
16737;SDS011;17906;47.684;10.806;2023-05-16T04:15:44;5.50;;;3.13;;
16737;SDS011;17906;47.684;10.806;2023-05-16T04:18:11;10.47;;;3.33;;
16737;SDS011;17906;47.684;10.806;2023-05-16T04:20:38;6.47;;;3.20;;
16737;SDS011;17906;47.684;10.806;2023-05-16T04:23:05;7.57;;;3.30;;
16737;SDS011;17906;47.684;10.806;2023-05-16T04:25:31;6.00;;;3.00;;
16737;SDS011;17906;47.684;10.806;2023-05-16T04:27:58;4.93;;;3.07;;
16737;SDS011;17906;47.684;10.806;2023-05-16T04:30:25;6.60;;;3.33;;
16737;SDS011;17906;47.684;10.806;2023-05-16T04:32:52;4.63;;;3.00;;
16737;SDS011;17906;47.684;10.806;2023-05-16T04:35:19;5.10;;;3.37;;
16737;SDS011;17906;47.684;10.806;2023-05-16T04:37:46;4.50;;;2.97;;
16737;SDS011;17906;47.684;10.806;2023-05-16T04:40:13;4.87;;;3.23;;
16737;SDS011;17906;47.684;10.806;2023-05-16T04:42:41;6.20;;;3.23;;
16737;SDS011;17906;47.684;10.806;2023-05-16T04:45:08;5.43;;;3.37;;
16737;SDS011;17906;47.684;10.806;2023-05-16T04:47:36;5.87;;;3.50;;
16737;SDS011;17906;47.684;10.806;2023-05-16T04:50:05;7.53;;;4.37;;
16737;SDS011;17906;47.684;10.806;2023-05-16T04:52:33;12.67;;;6.80;;
16737;SDS011;17906;47.684;10.806;2023-05-16T04:54:59;14.73;;;8.23;;
16737;SDS011;17906;47.684;10.806;2023-05-16T04:57:26;10.57;;;5.30;;
16737;SDS011;17906;47.684;10.806;2023-05-16T04:59:52;8.20;;;4.60;;
16737;SDS011;17906;47.684;10.806;2023-05-16T05:02:19;10.43;;;5.03;;
16737;SDS011;17906;47.684;10.806;2023-05-16T05:04:46;7.77;;;4.50;;
16737;SDS011;17906;47.684;10.806;2023-05-16T05:07:13;8.63;;;5.03;;
16737;SDS011;17906;47.684;10.806;2023-05-16T05:09:40;8.67;;;4.87;;
16737;SDS011;17906;47.684;10.806;2023-05-16T05:12:08;7.83;;;4.33;;
16737;SDS011;17906;47.684;10.806;2023-05-16T05:14:35;9.30;;;4.63;;
16737;SDS011;17906;47.684;10.806;2023-05-16T05:17:01;8.33;;;4.30;;
16737;SDS011;17906;47.684;10.806;2023-05-16T05:19:28;7.43;;;4.33;;
16737;SDS011;17906;47.684;10.806;2023-05-16T05:21:54;9.40;;;4.57;;
16737;SDS011;17906;47.684;10.806;2023-05-16T05:24:23;7.07;;;4.10;;
16737;SDS011;17906;47.684;10.806;2023-05-16T05:26:49;18.87;;;10.67;;
16737;SDS011;17906;47.684;10.806;2023-05-16T05:29:16;22.23;;;13.23;;
16737;SDS011;17906;47.684;10.806;2023-05-16T05:31:42;12.63;;;7.40;;
16737;SDS011;17906;47.684;10.806;2023-05-16T05:34:09;9.47;;;5.80;;
16737;SDS011;17906;47.684;10.806;2023-05-16T05:36:35;6.67;;;4.47;;
16737;SDS011;17906;47.684;10.806;2023-05-16T05:39:01;7.60;;;4.53;;
16737;SDS011;17906;47.684;10.806;2023-05-16T05:41:30;7.37;;;4.47;;
16737;SDS011;17906;47.684;10.806;2023-05-16T05:43:56;8.60;;;4.33;;
16737;SDS011;17906;47.684;10.806;2023-05-16T05:46:23;9.07;;;4.40;;
16737;SDS011;17906;47.684;10.806;2023-05-16T05:48:50;6.70;;;4.00;;
16737;SDS011;17906;47.684;10.806;2023-05-16T05:51:16;10.43;;;5.40;;
16737;SDS011;17906;47.684;10.806;2023-05-16T05:53:43;5.93;;;3.33;;
16737;SDS011;17906;47.684;10.806;2023-05-16T05:56:10;5.63;;;3.50;;
16737;SDS011;17906;47.684;10.806;2023-05-16T05:58:38;6.37;;;3.70;;
16737;SDS011;17906;47.684;10.806;2023-05-16T06:01:06;6.83;;;3.70;;
16737;SDS011;17906;47.684;10.806;2023-05-16T06:03:32;6.43;;;3.57;;
16737;SDS011;17906;47.684;10.806;2023-05-16T06:05:59;7.13;;;3.50;;
16737;SDS011;17906;47.684;10.806;2023-05-16T06:08:25;6.13;;;3.13;;
16737;SDS011;17906;47.684;10.806;2023-05-16T06:10:52;6.40;;;3.30;;
16737;SDS011;17906;47.684;10.806;2023-05-16T06:13:19;5.03;;;3.47;;
16737;SDS011;17906;47.684;10.806;2023-05-16T06:15:49;5.53;;;3.60;;
16737;SDS011;17906;47.684;10.806;2023-05-16T06:18:16;4.57;;;3.30;;
16737;SDS011;17906;47.684;10.806;2023-05-16T06:20:43;13.93;;;7.73;;
16737;SDS011;17906;47.684;10.806;2023-05-16T06:23:10;17.07;;;9.47;;
16737;SDS011;17906;47.684;10.806;2023-05-16T06:25:37;8.57;;;4.80;;
16737;SDS011;17906;47.684;10.806;2023-05-16T06:28:03;15.97;;;8.90;;
16737;SDS011;17906;47.684;10.806;2023-05-16T06:30:30;5.53;;;4.10;;
16737;SDS011;17906;47.684;10.806;2023-05-16T06:32:58;9.87;;;4.47;;
16737;SDS011;17906;47.684;10.806;2023-05-16T06:35:24;11.13;;;5.23;;
16737;SDS011;17906;47.684;10.806;2023-05-16T06:37:51;7.87;;;5.27;;
16737;SDS011;17906;47.684;10.806;2023-05-16T06:40:18;7.93;;;5.27;;
16737;SDS011;17906;47.684;10.806;2023-05-16T06:42:44;11.03;;;6.43;;
16737;SDS011;17906;47.684;10.806;2023-05-16T06:45:11;10.67;;;6.80;;
16737;SDS011;17906;47.684;10.806;2023-05-16T06:47:38;11.57;;;6.70;;
16737;SDS011;17906;47.684;10.806;2023-05-16T06:50:06;8.50;;;6.10;;
16737;SDS011;17906;47.684;10.806;2023-05-16T06:52:34;10.93;;;7.30;;
16737;SDS011;17906;47.684;10.806;2023-05-16T06:55:00;10.67;;;6.80;;
16737;SDS011;17906;47.684;10.806;2023-05-16T06:57:27;11.37;;;7.47;;
16737;SDS011;17906;47.684;10.806;2023-05-16T06:59:54;13.23;;;6.67;;
16737;SDS011;17906;47.684;10.806;2023-05-16T07:02:20;11.83;;;6.67;;
16737;SDS011;17906;47.684;10.806;2023-05-16T07:04:47;9.83;;;6.47;;
16737;SDS011;17906;47.684;10.806;2023-05-16T07:07:15;9.57;;;6.20;;
16737;SDS011;17906;47.684;10.806;2023-05-16T07:09:41;16.47;;;9.07;;
16737;SDS011;17906;47.684;10.806;2023-05-16T07:12:08;15.60;;;9.20;;
16737;SDS011;17906;47.684;10.806;2023-05-16T07:14:35;13.20;;;7.20;;
16737;SDS011;17906;47.684;10.806;2023-05-16T07:17:01;10.53;;;6.60;;
16737;SDS011;17906;47.684;10.806;2023-05-16T07:19:28;13.80;;;7.37;;
16737;SDS011;17906;47.684;10.806;2023-05-16T07:21:55;13.73;;;7.70;;
16737;SDS011;17906;47.684;10.806;2023-05-16T07:24:23;12.10;;;6.63;;
16737;SDS011;17906;47.684;10.806;2023-05-16T07:26:49;11.47;;;6.93;;
16737;SDS011;17906;47.684;10.806;2023-05-16T07:29:16;13.90;;;8.13;;
16737;SDS011;17906;47.684;10.806;2023-05-16T07:31:42;12.83;;;8.57;;
16737;SDS011;17906;47.684;10.806;2023-05-16T07:34:09;13.30;;;8.57;;
16737;SDS011;17906;47.684;10.806;2023-05-16T07:36:36;14.43;;;9.07;;
16737;SDS011;17906;47.684;10.806;2023-05-16T07:39:03;13.70;;;9.00;;
16737;SDS011;17906;47.684;10.806;2023-05-16T07:41:31;14.90;;;8.40;;
16737;SDS011;17906;47.684;10.806;2023-05-16T07:43:57;13.23;;;8.87;;
16737;SDS011;17906;47.684;10.806;2023-05-16T07:46:24;15.23;;;9.83;;
16737;SDS011;17906;47.684;10.806;2023-05-16T07:48:50;14.60;;;9.90;;
16737;SDS011;17906;47.684;10.806;2023-05-16T07:51:17;15.93;;;10.00;;
16737;SDS011;17906;47.684;10.806;2023-05-16T07:53:43;18.83;;;9.57;;
16737;SDS011;17906;47.684;10.806;2023-05-16T07:56:10;15.17;;;9.90;;
16737;SDS011;17906;47.684;10.806;2023-05-16T07:58:38;21.30;;;12.10;;
16737;SDS011;17906;47.684;10.806;2023-05-16T08:01:05;16.77;;;9.73;;
16737;SDS011;17906;47.684;10.806;2023-05-16T08:03:31;14.07;;;9.60;;
16737;SDS011;17906;47.684;10.806;2023-05-16T08:05:58;15.10;;;9.70;;
16737;SDS011;17906;47.684;10.806;2023-05-16T08:08:24;14.60;;;9.63;;
16737;SDS011;17906;47.684;10.806;2023-05-16T08:10:51;15.23;;;9.23;;
16737;SDS011;17906;47.684;10.806;2023-05-16T08:13:17;18.43;;;10.33;;
16737;SDS011;17906;47.684;10.806;2023-05-16T08:15:45;17.00;;;10.17;;
16737;SDS011;17906;47.684;10.806;2023-05-16T08:18:12;16.50;;;10.03;;
16737;SDS011;17906;47.684;10.806;2023-05-16T08:20:40;13.73;;;9.40;;
16737;SDS011;17906;47.684;10.806;2023-05-16T08:23:06;14.67;;;10.07;;
16737;SDS011;17906;47.684;10.806;2023-05-16T08:25:33;17.40;;;11.07;;
16737;SDS011;17906;47.684;10.806;2023-05-16T08:28:00;18.10;;;10.40;;
16737;SDS011;17906;47.684;10.806;2023-05-16T08:30:27;17.50;;;10.63;;
16737;SDS011;17906;47.684;10.806;2023-05-16T08:32:55;19.03;;;11.47;;
16737;SDS011;17906;47.684;10.806;2023-05-16T08:35:21;18.93;;;10.90;;
16737;SDS011;17906;47.684;10.806;2023-05-16T08:37:48;19.13;;;11.50;;
16737;SDS011;17906;47.684;10.806;2023-05-16T08:40:14;18.67;;;11.30;;
16737;SDS011;17906;47.684;10.806;2023-05-16T08:42:41;40.73;;;19.40;;
16737;SDS011;17906;47.684;10.806;2023-05-16T08:45:08;33.40;;;17.50;;
16737;SDS011;17906;47.684;10.806;2023-05-16T08:47:35;27.63;;;15.33;;
16737;SDS011;17906;47.684;10.806;2023-05-16T08:50:08;34.97;;;18.53;;
16737;SDS011;17906;47.684;10.806;2023-05-16T08:52:35;28.93;;;16.20;;
16737;SDS011;17906;47.684;10.806;2023-05-16T08:55:04;20.77;;;13.57;;
16737;SDS011;17906;47.684;10.806;2023-05-16T08:57:33;18.83;;;12.67;;
16737;SDS011;17906;47.684;10.806;2023-05-16T09:00:00;22.87;;;14.20;;
16737;SDS011;17906;47.684;10.806;2023-05-16T09:02:31;21.50;;;13.17;;
16737;SDS011;17906;47.684;10.806;2023-05-16T09:04:58;19.03;;;11.93;;
16737;SDS011;17906;47.684;10.806;2023-05-16T09:07:26;21.13;;;12.50;;
16737;SDS011;17906;47.684;10.806;2023-05-16T09:09:53;22.67;;;12.90;;
16737;SDS011;17906;47.684;10.806;2023-05-16T09:12:20;19.37;;;12.53;;
16737;SDS011;17906;47.684;10.806;2023-05-16T09:14:46;21.27;;;13.43;;
16737;SDS011;17906;47.684;10.806;2023-05-16T09:17:13;27.07;;;16.63;;
16737;SDS011;17906;47.684;10.806;2023-05-16T09:19:40;22.07;;;14.43;;
16737;SDS011;17906;47.684;10.806;2023-05-16T09:22:08;22.70;;;13.80;;
16737;SDS011;17906;47.684;10.806;2023-05-16T09:24:41;23.97;;;13.93;;
16737;SDS011;17906;47.684;10.806;2023-05-16T09:27:09;25.53;;;15.33;;
16737;SDS011;17906;47.684;10.806;2023-05-16T09:29:36;21.30;;;13.10;;
16737;SDS011;17906;47.684;10.806;2023-05-16T09:32:09;21.60;;;14.17;;
16737;SDS011;17906;47.684;10.806;2023-05-16T09:34:37;21.83;;;14.07;;
16737;SDS011;17906;47.684;10.806;2023-05-16T09:37:05;22.50;;;15.30;;
16737;SDS011;17906;47.684;10.806;2023-05-16T09:39:31;20.07;;;13.67;;
16737;SDS011;17906;47.684;10.806;2023-05-16T09:41:59;19.23;;;13.33;;
16737;SDS011;17906;47.684;10.806;2023-05-16T09:44:26;20.17;;;13.63;;
16737;SDS011;17906;47.684;10.806;2023-05-16T09:46:53;23.70;;;14.83;;
16737;SDS011;17906;47.684;10.806;2023-05-16T09:49:19;25.50;;;15.70;;
16737;SDS011;17906;47.684;10.806;2023-05-16T09:51:46;23.73;;;15.37;;
16737;SDS011;17906;47.684;10.806;2023-05-16T09:54:13;22.37;;;14.57;;
16737;SDS011;17906;47.684;10.806;2023-05-16T09:56:47;25.67;;;16.33;;
16737;SDS011;17906;47.684;10.806;2023-05-16T09:59:16;21.87;;;14.47;;
16737;SDS011;17906;47.684;10.806;2023-05-16T10:01:42;23.50;;;15.67;;
16737;SDS011;17906;47.684;10.806;2023-05-16T10:04:09;34.20;;;16.23;;
16737;SDS011;17906;47.684;10.806;2023-05-16T10:06:38;24.97;;;15.80;;
16737;SDS011;17906;47.684;10.806;2023-05-16T10:09:06;27.63;;;16.93;;
16737;SDS011;17906;47.684;10.806;2023-05-16T10:11:37;24.17;;;15.40;;
16737;SDS011;17906;47.684;10.806;2023-05-16T10:14:05;27.23;;;15.43;;
16737;SDS011;17906;47.684;10.806;2023-05-16T10:16:34;22.53;;;13.90;;
16737;SDS011;17906;47.684;10.806;2023-05-16T10:19:01;30.00;;;16.33;;
16737;SDS011;17906;47.684;10.806;2023-05-16T10:21:30;23.33;;;14.47;;
16737;SDS011;17906;47.684;10.806;2023-05-16T10:23:58;23.87;;;14.67;;
16737;SDS011;17906;47.684;10.806;2023-05-16T10:26:28;23.40;;;14.87;;
16737;SDS011;17906;47.684;10.806;2023-05-16T10:28:57;23.00;;;14.40;;
16737;SDS011;17906;47.684;10.806;2023-05-16T10:31:25;23.47;;;14.13;;
16737;SDS011;17906;47.684;10.806;2023-05-16T10:33:55;26.03;;;16.17;;
16737;SDS011;17906;47.684;10.806;2023-05-16T10:36:22;23.97;;;14.93;;
16737;SDS011;17906;47.684;10.806;2023-05-16T10:38:50;24.23;;;15.33;;
16737;SDS011;17906;47.684;10.806;2023-05-16T10:41:17;24.23;;;14.40;;
16737;SDS011;17906;47.684;10.806;2023-05-16T10:43:54;25.77;;;14.83;;
16737;SDS011;17906;47.684;10.806;2023-05-16T10:46:22;33.50;;;21.90;;
16737;SDS011;17906;47.684;10.806;2023-05-16T10:48:50;23.07;;;15.17;;
16737;SDS011;17906;47.684;10.806;2023-05-16T10:51:34;24.20;;;16.33;;
16737;SDS011;17906;47.684;10.806;2023-05-16T10:54:05;21.30;;;14.47;;
16737;SDS011;17906;47.684;10.806;2023-05-16T10:56:34;22.23;;;13.50;;
16737;SDS011;17906;47.684;10.806;2023-05-16T10:59:01;22.17;;;13.77;;
16737;SDS011;17906;47.684;10.806;2023-05-16T11:01:29;23.17;;;14.53;;
16737;SDS011;17906;47.684;10.806;2023-05-16T11:04:05;22.27;;;14.97;;
16737;SDS011;17906;47.684;10.806;2023-05-16T11:06:34;21.33;;;14.10;;
16737;SDS011;17906;47.684;10.806;2023-05-16T11:11:54;24.63;;;16.57;;
16737;SDS011;17906;47.684;10.806;2023-05-16T11:14:23;30.57;;;19.40;;
16737;SDS011;17906;47.684;10.806;2023-05-16T11:16:56;23.53;;;15.47;;
16737;SDS011;17906;47.684;10.806;2023-05-16T11:19:30;26.07;;;17.77;;
16737;SDS011;17906;47.684;10.806;2023-05-16T11:22:09;31.60;;;18.80;;
16737;SDS011;17906;47.684;10.806;2023-05-16T11:24:44;22.67;;;15.27;;
16737;SDS011;17906;47.684;10.806;2023-05-16T11:27:18;26.97;;;17.37;;
16737;SDS011;17906;47.684;10.806;2023-05-16T11:29:46;26.40;;;17.90;;
16737;SDS011;17906;47.684;10.806;2023-05-16T11:32:13;21.43;;;14.57;;
16737;SDS011;17906;47.684;10.806;2023-05-16T11:34:39;22.77;;;14.93;;
16737;SDS011;17906;47.684;10.806;2023-05-16T11:37:10;22.63;;;14.17;;
16737;SDS011;17906;47.684;10.806;2023-05-16T11:39:37;25.57;;;17.70;;
16737;SDS011;17906;47.684;10.806;2023-05-16T11:42:04;24.63;;;17.30;;
16737;SDS011;17906;47.684;10.806;2023-05-16T11:44:30;25.43;;;16.97;;
16737;SDS011;17906;47.684;10.806;2023-05-16T11:46:57;24.83;;;17.40;;
16737;SDS011;17906;47.684;10.806;2023-05-16T11:49:26;25.30;;;17.13;;
16737;SDS011;17906;47.684;10.806;2023-05-16T11:51:52;25.93;;;17.17;;
16737;SDS011;17906;47.684;10.806;2023-05-16T11:54:22;25.70;;;17.67;;
16737;SDS011;17906;47.684;10.806;2023-05-16T11:56:49;25.43;;;17.37;;
16737;SDS011;17906;47.684;10.806;2023-05-16T11:59:16;23.37;;;16.87;;
16737;SDS011;17906;47.684;10.806;2023-05-16T12:01:43;25.13;;;17.20;;
16737;SDS011;17906;47.684;10.806;2023-05-16T12:04:13;24.30;;;15.87;;
16737;SDS011;17906;47.684;10.806;2023-05-16T12:06:41;26.30;;;16.13;;
16737;SDS011;17906;47.684;10.806;2023-05-16T12:09:10;27.20;;;17.63;;
16737;SDS011;17906;47.684;10.806;2023-05-16T12:11:41;25.33;;;17.23;;
16737;SDS011;17906;47.684;10.806;2023-05-16T12:14:10;29.20;;;19.23;;
16737;SDS011;17906;47.684;10.806;2023-05-16T12:16:38;25.70;;;17.03;;
16737;SDS011;17906;47.684;10.806;2023-05-16T12:19:06;29.63;;;19.17;;
16737;SDS011;17906;47.684;10.806;2023-05-16T12:21:34;28.53;;;18.30;;
16737;SDS011;17906;47.684;10.806;2023-05-16T12:24:01;25.00;;;16.87;;
16737;SDS011;17906;47.684;10.806;2023-05-16T12:26:28;26.17;;;17.97;;
16737;SDS011;17906;47.684;10.806;2023-05-16T12:28:57;29.60;;;18.27;;
16737;SDS011;17906;47.684;10.806;2023-05-16T12:31:27;26.53;;;18.73;;
16737;SDS011;17906;47.684;10.806;2023-05-16T12:33:55;26.50;;;18.53;;
16737;SDS011;17906;47.684;10.806;2023-05-16T12:36:22;22.83;;;15.37;;
16737;SDS011;17906;47.684;10.806;2023-05-16T12:38:50;28.00;;;17.40;;
16737;SDS011;17906;47.684;10.806;2023-05-16T12:41:18;27.43;;;17.63;;
16737;SDS011;17906;47.684;10.806;2023-05-16T12:43:45;26.03;;;17.77;;
16737;SDS011;17906;47.684;10.806;2023-05-16T12:46:14;20.97;;;13.73;;
16737;SDS011;17906;47.684;10.806;2023-05-16T12:48:41;17.70;;;12.93;;
16737;SDS011;17906;47.684;10.806;2023-05-16T12:51:09;21.40;;;13.57;;
16737;SDS011;17906;47.684;10.806;2023-05-16T12:53:40;17.07;;;12.30;;
16737;SDS011;17906;47.684;10.806;2023-05-16T12:56:08;20.17;;;13.57;;
16737;SDS011;17906;47.684;10.806;2023-05-16T12:58:35;27.33;;;16.67;;
16737;SDS011;17906;47.684;10.806;2023-05-16T13:01:01;22.93;;;13.07;;
16737;SDS011;17906;47.684;10.806;2023-05-16T13:03:30;19.73;;;12.67;;
16737;SDS011;17906;47.684;10.806;2023-05-16T13:05:57;25.10;;;12.97;;
16737;SDS011;17906;47.684;10.806;2023-05-16T13:08:25;17.73;;;10.90;;
16737;SDS011;17906;47.684;10.806;2023-05-16T13:10:52;16.13;;;10.20;;
16737;SDS011;17906;47.684;10.806;2023-05-16T13:13:19;19.97;;;13.10;;
16737;SDS011;17906;47.684;10.806;2023-05-16T13:15:46;16.10;;;11.83;;
16737;SDS011;17906;47.684;10.806;2023-05-16T13:18:12;20.60;;;13.73;;
16737;SDS011;17906;47.684;10.806;2023-05-16T13:20:40;18.93;;;13.57;;
16737;SDS011;17906;47.684;10.806;2023-05-16T13:23:07;17.30;;;11.53;;
16737;SDS011;17906;47.684;10.806;2023-05-16T13:25:34;15.63;;;10.50;;
16737;SDS011;17906;47.684;10.806;2023-05-16T13:28:00;23.00;;;13.40;;
16737;SDS011;17906;47.684;10.806;2023-05-16T13:33:18;35.30;;;19.87;;
16737;SDS011;17906;47.684;10.806;2023-05-16T13:35:46;27.13;;;16.63;;
16737;SDS011;17906;47.684;10.806;2023-05-16T13:38:13;16.97;;;11.63;;
16737;SDS011;17906;47.684;10.806;2023-05-16T13:40:39;17.27;;;12.23;;
16737;SDS011;17906;47.684;10.806;2023-05-16T13:43:05;20.63;;;11.93;;
16737;SDS011;17906;47.684;10.806;2023-05-16T13:45:32;25.50;;;16.43;;
16737;SDS011;17906;47.684;10.806;2023-05-16T13:47:59;22.97;;;15.80;;
16737;SDS011;17906;47.684;10.806;2023-05-16T13:50:25;38.53;;;22.80;;
16737;SDS011;17906;47.684;10.806;2023-05-16T13:52:53;35.37;;;21.87;;
16737;SDS011;17906;47.684;10.806;2023-05-16T13:55:20;28.23;;;19.23;;
16737;SDS011;17906;47.684;10.806;2023-05-16T13:57:46;20.40;;;14.87;;
16737;SDS011;17906;47.684;10.806;2023-05-16T14:00:13;23.70;;;15.37;;
16737;SDS011;17906;47.684;10.806;2023-05-16T14:02:41;22.00;;;16.07;;
16737;SDS011;17906;47.684;10.806;2023-05-16T14:05:08;27.97;;;19.57;;
16737;SDS011;17906;47.684;10.806;2023-05-16T14:07:35;26.67;;;16.50;;
16737;SDS011;17906;47.684;10.806;2023-05-16T14:10:03;25.03;;;16.50;;
16737;SDS011;17906;47.684;10.806;2023-05-16T14:12:30;24.67;;;17.00;;
16737;SDS011;17906;47.684;10.806;2023-05-16T14:14:57;35.77;;;21.00;;
16737;SDS011;17906;47.684;10.806;2023-05-16T14:17:24;27.00;;;17.27;;
16737;SDS011;17906;47.684;10.806;2023-05-16T14:19:50;33.77;;;22.53;;
16737;SDS011;17906;47.684;10.806;2023-05-16T14:22:17;28.70;;;19.77;;
16737;SDS011;17906;47.684;10.806;2023-05-16T14:24:44;23.00;;;16.10;;
16737;SDS011;17906;47.684;10.806;2023-05-16T14:27:12;24.73;;;16.60;;
16737;SDS011;17906;47.684;10.806;2023-05-16T14:29:39;22.60;;;15.07;;